Time;durP1;ratioP1;P1;durP2;ratioP2;P2;SDS_P1;SDS_P2;PMS_P1;PMS_P2;Temp;Humidity;BMP_temperature;BMP_pressure;BME280_temperature;BME280_humidity;BME280_pressure;Samples;Min_cycle;Max_cycle;Signal;HPM_P1;HPM_P2
2022/04/24 00:01:53;;;;;;;;;;;10.70;99.90;;;;;;5092244;28;19916;-73
2022/04/24 00:04:18;;;;;;;;;;;11.30;99.90;;;;;;5092132;28;19947;-73
2022/04/24 00:06:46;;;;;;;;;;;10.70;99.90;;;;;;5092616;28;19917;-73
2022/04/24 00:09:13;;;;;;;;;;;10.60;99.90;;;;;;5074039;28;19931;-72
2022/04/24 00:11:38;;;;;;;;;;;10.60;99.90;;;;;;5091981;28;20419;-73
2022/04/24 00:14:09;;;;;;;;;;;11.30;99.90;;;;;;5092061;28;19962;-73
2022/04/24 00:16:35;;;;;;;;;;;10.60;99.90;;;;;;5092082;28;20011;-72
2022/04/24 00:19:01;;;;;;;;;;;10.50;99.90;;;;;;5073620;28;20019;-73
2022/04/24 00:21:26;;;;;;;;;;;10.80;99.90;;;;;;5073632;28;19916;-73
2022/04/24 00:23:52;;;;;;;;;;;10.40;99.90;;;;;;5091792;28;19908;-73
2022/04/24 00:26:17;;;;;;;;;;;10.40;99.90;;;;;;5091781;28;19908;-72
2022/04/24 00:28:43;;;;;;;;;;;10.40;99.90;;;;;;5073582;28;20283;-72
2022/04/24 00:31:08;;;;;;;;;;;10.40;99.90;;;;;;5073353;28;19912;-72
2022/04/24 00:33:33;;;;;;;;;;;10.40;99.90;;;;;;5091620;28;19915;-72
2022/04/24 00:35:59;;;;;;;;;;;10.40;99.90;;;;;;5091731;28;20368;-73
2022/04/24 00:38:24;;;;;;;;;;;10.40;99.90;;;;;;5073796;28;19924;-73
2022/04/24 00:40:50;;;;;;;;;;;10.40;99.90;;;;;;5091646;28;19959;-72
2022/04/24 00:43:16;;;;;;;;;;;10.40;99.90;;;;;;5092258;28;20345;-71
2022/04/24 00:45:41;;;;;;;;;;;10.40;99.90;;;;;;5091720;28;19908;-73
2022/04/24 00:48:07;;;;;;;;;;;10.40;99.90;;;;;;5091425;28;19923;-72
2022/04/24 00:50:34;;;;;;;;;;;10.40;99.90;;;;;;5073113;28;20326;-72
2022/04/24 00:53:00;;;;;;;;;;;10.40;99.90;;;;;;5091045;28;19927;-70
2022/04/24 00:55:26;;;;;;;;;;;10.40;99.90;;;;;;5091263;28;19912;-70
2022/04/24 00:57:51;;;;;;;;;;;10.40;99.90;;;;;;5091602;28;19999;-71
2022/04/24 01:00:17;;;;;;;;;;;10.40;99.90;;;;;;5073051;28;19951;-71
2022/04/24 01:02:42;;;;;;;;;;;10.50;99.90;;;;;;5091537;28;19916;-70
2022/04/24 01:05:08;;;;;;;;;;;10.40;99.90;;;;;;5091537;28;19953;-71
2022/04/24 01:07:33;;;;;;;;;;;10.40;99.90;;;;;;5091519;28;20212;-71
2022/04/24 01:10:00;;;;;;;;;;;10.40;99.90;;;;;;5091223;28;19908;-71
2022/04/24 01:12:25;;;;;;;;;;;10.30;99.90;;;;;;5091367;28;20390;-72
2022/04/24 01:14:51;;;;;;;;;;;10.30;99.90;;;;;;5072830;28;19908;-71
2022/04/24 01:17:17;;;;;;;;;;;10.30;99.90;;;;;;5073235;28;19922;-71
2022/04/24 01:19:42;;;;;;;;;;;10.30;99.90;;;;;;5072962;28;19919;-71
2022/04/24 01:22:08;;;;;;;;;;;10.30;99.90;;;;;;5091523;28;20364;-71
2022/04/24 01:24:34;;;;;;;;;;;10.30;99.90;;;;;;5091187;28;19915;-71
2022/04/24 01:26:59;;;;;;;;;;;10.40;99.90;;;;;;5091315;28;19966;-71
2022/04/24 01:29:25;;;;;;;;;;;10.40;99.90;;;;;;5090942;28;19912;-72
2022/04/24 01:31:51;;;;;;;;;;;10.40;99.90;;;;;;5072886;28;20328;-71
2022/04/24 01:34:17;;;;;;;;;;;10.30;99.90;;;;;;5091054;28;20292;-71
2022/04/24 01:36:42;;;;;;;;;;;10.30;99.90;;;;;;5090872;28;19927;-71
2022/04/24 01:39:08;;;;;;;;;;;10.30;99.90;;;;;;5090954;28;20408;-72
2022/04/24 01:41:34;;;;;;;;;;;10.30;99.90;;;;;;5072636;28;19935;-71
2022/04/24 01:43:59;;;;;;;;;;;10.30;99.90;;;;;;5072836;28;19912;-71
2022/04/24 01:46:25;;;;;;;;;;;10.30;99.90;;;;;;5090748;28;20367;-71
2022/04/24 01:48:51;;;;;;;;;;;10.30;99.90;;;;;;5091037;28;19995;-71
2022/04/24 01:51:16;;;;;;;;;;;10.20;99.90;;;;;;5090900;28;19908;-71
2022/04/24 01:53:42;;;;;;;;;;;10.20;99.90;;;;;;5090979;28;19923;-71
2022/04/24 01:56:08;;;;;;;;;;;10.30;99.90;;;;;;5090660;28;20248;-71
2022/04/24 01:58:35;;;;;;;;;;;10.30;99.90;;;;;;5090753;28;19916;-71
2022/04/24 02:01:03;;;;;;;;;;;10.30;99.90;;;;;;5090565;28;19908;-71
2022/04/24 02:03:29;;;;;;;;;;;10.30;99.90;;;;;;5090816;28;19912;-71
2022/04/24 02:05:55;;;;;;;;;;;10.30;99.90;;;;;;5093617;28;19978;-71
2022/04/24 02:08:20;;;;;;;;;;;10.20;99.90;;;;;;5095049;28;19916;-71
2022/04/24 02:10:46;;;;;;;;;;;10.30;99.90;;;;;;5094224;28;20074;-72
2022/04/24 02:13:11;;;;;;;;;;;10.30;99.90;;;;;;5094604;28;19926;-73
2022/04/24 02:15:37;;;;;;;;;;;10.30;99.90;;;;;;5094340;28;19947;-70
2022/04/24 02:18:02;;;;;;;;;;;10.30;99.90;;;;;;5094804;28;19920;-72
2022/04/24 02:20:31;;;;;;;;;;;10.20;99.90;;;;;;5075753;28;19915;-72
2022/04/24 02:22:57;;;;;;;;;;;10.20;99.90;;;;;;5094466;28;19920;-71
2022/04/24 02:25:26;;;;;;;;;;;10.20;99.90;;;;;;5076136;28;19938;-71
2022/04/24 02:27:55;;;;;;;;;;;10.20;99.90;;;;;;5094257;28;19959;-71
2022/04/24 02:30:21;;;;;;;;;;;10.20;99.90;;;;;;5093884;28;19931;-71
2022/04/24 02:32:46;;;;;;;;;;;10.20;99.90;;;;;;5076093;28;19916;-71
2022/04/24 02:35:12;;;;;;;;;;;10.20;99.90;;;;;;5093775;28;19912;-72
2022/04/24 02:37:38;;;;;;;;;;;10.20;99.90;;;;;;5075685;28;19923;-71
2022/04/24 02:40:04;;;;;;;;;;;10.20;99.90;;;;;;5093810;28;20073;-71
2022/04/24 02:42:29;;;;;;;;;;;10.20;99.90;;;;;;5093734;28;19916;-71
2022/04/24 02:44:55;;;;;;;;;;;10.30;99.90;;;;;;5093773;28;19935;-72
2022/04/24 02:47:20;;;;;;;;;;;10.30;99.90;;;;;;5093930;28;19916;-71
2022/04/24 02:49:46;;;;;;;;;;;10.30;99.90;;;;;;5093713;28;19915;-71
2022/04/24 02:52:11;;;;;;;;;;;10.20;99.90;;;;;;5093929;28;20431;-72
2022/04/24 02:54:37;;;;;;;;;;;10.20;99.90;;;;;;5093602;28;19922;-71
2022/04/24 02:57:02;;;;;;;;;;;10.20;99.90;;;;;;5093804;28;19923;-71
2022/04/24 02:59:29;;;;;;;;;;;10.10;99.90;;;;;;5075382;28;19916;-71
2022/04/24 03:01:55;;;;;;;;;;;10.20;99.90;;;;;;5093721;28;19916;-71
2022/04/24 03:04:20;;;;;;;;;;;10.20;99.90;;;;;;5075191;28;19912;-72
2022/04/24 03:06:46;;;;;;;;;;;10.20;99.90;;;;;;5093409;28;19920;-71
2022/04/24 03:09:11;;;;;;;;;;;10.20;99.90;;;;;;5075051;28;19908;-71
2022/04/24 03:11:37;;;;;;;;;;;10.20;99.90;;;;;;5093015;28;19947;-71
2022/04/24 03:14:02;;;;;;;;;;;10.10;99.90;;;;;;5093202;28;19931;-71
2022/04/24 03:16:28;;;;;;;;;;;10.10;99.90;;;;;;5092898;28;19916;-72
2022/04/24 03:18:53;;;;;;;;;;;10.10;99.90;;;;;;5075036;28;20003;-71
2022/04/24 03:21:19;;;;;;;;;;;10.10;99.90;;;;;;5074654;28;19908;-71
2022/04/24 03:23:44;;;;;;;;;;;10.10;99.90;;;;;;5092984;28;19922;-71
2022/04/24 03:26:13;;;;;;;;;;;10.00;99.90;;;;;;5092773;28;19915;-71
2022/04/24 03:28:40;;;;;;;;;;;10.20;99.90;;;;;;5092894;28;19909;-71
2022/04/24 03:31:05;;;;;;;;;;;10.10;99.90;;;;;;5092871;28;19912;-72
2022/04/24 03:33:31;;;;;;;;;;;10.10;99.90;;;;;;5092680;28;19908;-71
2022/04/24 03:35:56;;;;;;;;;;;10.10;99.90;;;;;;5092622;28;20371;-72
2022/04/24 03:38:22;;;;;;;;;;;10.10;99.90;;;;;;5093005;28;19916;-71
2022/04/24 03:40:47;;;;;;;;;;;10.20;99.90;;;;;;5074436;28;19999;-72
2022/04/24 03:43:12;;;;;;;;;;;10.10;99.90;;;;;;5092913;28;19916;-71
2022/04/24 03:45:38;;;;;;;;;;;10.20;99.90;;;;;;5092772;28;19995;-71
2022/04/24 03:48:04;;;;;;;;;;;10.20;99.90;;;;;;5092857;28;19916;-71
2022/04/24 03:50:29;;;;;;;;;;;10.10;99.90;;;;;;5074205;28;19912;-71
2022/04/24 03:52:55;;;;;;;;;;;10.10;99.90;;;;;;5092742;28;20338;-71
2022/04/24 03:55:20;;;;;;;;;;;10.10;99.90;;;;;;5092413;28;20397;-71
2022/04/24 03:57:46;;;;;;;;;;;10.20;99.90;;;;;;5092575;28;19916;-71
2022/04/24 04:00:12;;;;;;;;;;;10.10;99.90;;;;;;5092132;28;20340;-71
2022/04/24 04:02:46;;;;;;;;;;;10.20;99.90;;;;;;5092387;28;19916;-71
2022/04/24 04:05:13;;;;;;;;;;;10.10;99.90;;;;;;5092180;28;19908;-71
2022/04/24 04:07:38;;;;;;;;;;;10.10;99.90;;;;;;5092369;28;19916;-72
2022/04/24 04:10:04;;;;;;;;;;;10.10;99.90;;;;;;5092269;28;19915;-71
2022/04/24 04:12:30;;;;;;;;;;;10.10;99.90;;;;;;5092257;28;20291;-71
2022/04/24 04:14:55;;;;;;;;;;;10.20;99.90;;;;;;5073803;28;20008;-71
2022/04/24 04:17:21;;;;;;;;;;;10.20;99.90;;;;;;5092028;28;19923;-72
2022/04/24 04:19:46;;;;;;;;;;;10.20;99.90;;;;;;5091694;28;19912;-71
2022/04/24 04:22:12;;;;;;;;;;;10.20;99.90;;;;;;5092000;28;19920;-72
2022/04/24 04:24:37;;;;;;;;;;;10.20;99.90;;;;;;5073622;28;20003;-71
2022/04/24 04:27:03;;;;;;;;;;;10.20;99.90;;;;;;5091179;28;19920;-71
2022/04/24 04:29:29;;;;;;;;;;;10.20;99.90;;;;;;5073585;28;19923;-71
2022/04/24 04:31:55;;;;;;;;;;;10.20;99.90;;;;;;5091759;28;20269;-71
2022/04/24 04:34:20;;;;;;;;;;;10.10;99.90;;;;;;5091593;28;19916;-71
2022/04/24 04:36:46;;;;;;;;;;;10.10;99.90;;;;;;5091572;28;19920;-72
2022/04/24 04:39:11;;;;;;;;;;;10.10;99.90;;;;;;5091637;28;20340;-71
2022/04/24 04:41:37;;;;;;;;;;;10.20;99.90;;;;;;5073297;28;19963;-70
2022/04/24 04:44:02;;;;;;;;;;;10.10;99.90;;;;;;5091476;28;20007;-72
2022/04/24 04:46:28;;;;;;;;;;;10.10;99.90;;;;;;5091607;28;19963;-71
2022/04/24 04:48:54;;;;;;;;;;;10.10;99.90;;;;;;5091488;28;19959;-71
2022/04/24 04:51:19;;;;;;;;;;;10.00;99.90;;;;;;5073209;28;19912;-72
2022/04/24 04:53:45;;;;;;;;;;;10.00;99.90;;;;;;5091428;28;20273;-71
2022/04/24 04:56:10;;;;;;;;;;;10.00;99.90;;;;;;5091149;28;19994;-71
2022/04/24 04:58:36;;;;;;;;;;;10.00;99.90;;;;;;5091684;28;19926;-72
2022/04/24 05:01:02;;;;;;;;;;;10.20;99.90;;;;;;5091223;28;19912;-72
2022/04/24 05:03:27;;;;;;;;;;;10.30;99.90;;;;;;5091268;28;19908;-72
2022/04/24 05:05:53;;;;;;;;;;;10.20;99.90;;;;;;5091309;28;19915;-72
2022/04/24 05:08:18;;;;;;;;;;;10.20;99.90;;;;;;5091680;28;19923;-72
2022/04/24 05:10:44;;;;;;;;;;;10.20;99.90;;;;;;5091050;28;20391;-72
2022/04/24 05:13:10;;;;;;;;;;;10.20;99.90;;;;;;5073202;28;20050;-71
2022/04/24 05:15:35;;;;;;;;;;;10.40;99.90;;;;;;5091203;28;19939;-72
2022/04/24 05:18:01;;;;;;;;;;;10.60;99.90;;;;;;5073054;28;20288;-72
2022/04/24 05:20:26;;;;;;;;;;;10.80;99.90;;;;;;5091008;28;20311;-72
2022/04/24 05:23:02;;;;;;;;;;;10.90;99.90;;;;;;5091739;28;20000;-72
2022/04/24 05:25:27;;;;;;;;;;;11.00;99.90;;;;;;5091328;28;19912;-71
2022/04/24 05:27:53;;;;;;;;;;;11.20;99.90;;;;;;5073028;28;19920;-72
2022/04/24 05:30:18;;;;;;;;;;;11.20;99.90;;;;;;5090921;28;20356;-72
2022/04/24 05:32:49;;;;;;;;;;;11.10;99.90;;;;;;5091348;28;19916;-72
2022/04/24 05:35:15;;;;;;;;;;;11.00;99.90;;;;;;5091323;28;19951;-72
2022/04/24 05:37:41;;;;;;;;;;;11.10;99.90;;;;;;5091395;28;20314;-71
2022/04/24 05:40:07;;;;;;;;;;;11.30;99.90;;;;;;5092656;28;19912;-72
2022/04/24 05:42:32;;;;;;;;;;;11.60;99.90;;;;;;5095251;28;19916;-71
2022/04/24 05:45:04;;;;;;;;;;;11.90;99.90;;;;;;5094804;28;19908;-71
2022/04/24 05:47:30;;;;;;;;;;;12.10;99.90;;;;;;5094903;28;20201;-72
2022/04/24 05:49:55;;;;;;;;;;;12.30;99.90;;;;;;5094637;28;19961;-72
2022/04/24 05:52:21;;;;;;;;;;;12.40;99.90;;;;;;5094993;28;20331;-73
2022/04/24 05:54:46;;;;;;;;;;;12.30;99.90;;;;;;5094682;28;19908;-73
2022/04/24 05:57:12;;;;;;;;;;;12.20;99.90;;;;;;5094869;28;19923;-72
2022/04/24 05:59:37;;;;;;;;;;;12.40;99.90;;;;;;5094421;28;20014;-72
2022/04/24 06:02:03;;;;;;;;;;;12.60;99.90;;;;;;5094771;28;19924;-72
2022/04/24 06:04:29;;;;;;;;;;;12.70;99.90;;;;;;5076346;28;19915;-73
2022/04/24 06:06:54;;;;;;;;;;;12.80;99.90;;;;;;5094799;28;20023;-72
2022/04/24 06:09:20;;;;;;;;;;;12.80;99.90;;;;;;5094475;28;19969;-73
2022/04/24 06:11:45;;;;;;;;;;;13.00;99.90;;;;;;5075867;28;19932;-72
2022/04/24 06:14:11;;;;;;;;;;;13.20;99.90;;;;;;5094386;28;19908;-73
2022/04/24 06:16:36;;;;;;;;;;;13.00;99.90;;;;;;5075968;28;20018;-73
2022/04/24 06:19:02;;;;;;;;;;;12.80;99.90;;;;;;5094176;28;19912;-73
2022/04/24 06:21:28;;;;;;;;;;;12.80;99.90;;;;;;5094276;28;19916;-73
2022/04/24 06:23:53;;;;;;;;;;;12.70;99.90;;;;;;5094033;28;19970;-73
2022/04/24 06:26:19;;;;;;;;;;;12.80;99.90;;;;;;5094062;28;19915;-73
2022/04/24 06:28:44;;;;;;;;;;;12.90;99.90;;;;;;5094129;28;20425;-73
2022/04/24 06:31:10;;;;;;;;;;;13.00;99.90;;;;;;5093825;28;19930;-74
2022/04/24 06:33:35;;;;;;;;;;;13.10;99.90;;;;;;5094335;28;20335;-73
2022/04/24 06:36:02;;;;;;;;;;;13.00;99.90;;;;;;5094031;28;19954;-73
2022/04/24 06:38:28;;;;;;;;;;;12.90;99.90;;;;;;5075547;28;19976;-74
2022/04/24 06:40:53;;;;;;;;;;;13.00;99.90;;;;;;5075658;28;20406;-74
2022/04/24 06:43:19;;;;;;;;;;;13.30;99.90;;;;;;5075752;28;19970;-74
2022/04/24 06:45:44;;;;;;;;;;;13.50;99.90;;;;;;5093645;28;19908;-74
2022/04/24 06:48:11;;;;;;;;;;;13.70;99.90;;;;;;5094125;28;19999;-72
2022/04/24 06:50:38;;;;;;;;;;;13.80;99.90;;;;;;5093038;28;19912;-72
2022/04/24 06:53:04;;;;;;;;;;;13.60;99.90;;;;;;5093976;28;20344;-72
2022/04/24 06:55:31;;;;;;;;;;;13.60;99.90;;;;;;5093364;28;19912;-72
2022/04/24 06:57:57;;;;;;;;;;;13.70;99.90;;;;;;5075355;28;19920;-72
2022/04/24 07:00:23;;;;;;;;;;;13.90;99.90;;;;;;5093227;28;20368;-72
2022/04/24 07:02:49;;;;;;;;;;;14.00;99.90;;;;;;5093707;28;19916;-71
2022/04/24 07:05:15;;;;;;;;;;;14.10;99.90;;;;;;5093274;28;19916;-72
2022/04/24 07:07:41;;;;;;;;;;;14.10;99.90;;;;;;5093518;28;20379;-72
2022/04/24 07:10:07;;;;;;;;;;;14.20;99.90;;;;;;5075046;28;19943;-72
2022/04/24 07:12:42;;;;;;;;;;;14.10;99.90;;;;;;5074797;28;19931;-73
2022/04/24 07:15:08;;;;;;;;;;;14.20;99.90;;;;;;5093087;28;19912;-72
2022/04/24 07:17:34;;;;;;;;;;;14.10;99.90;;;;;;5075049;28;20019;-72
2022/04/24 07:19:59;;;;;;;;;;;14.30;99.90;;;;;;5092969;28;20406;-72
2022/04/24 07:22:25;;;;;;;;;;;14.70;99.90;;;;;;5093180;28;19922;-72
2022/04/24 07:24:50;;;;;;;;;;;14.80;99.90;;;;;;5074661;28;19915;-72
2022/04/24 07:27:16;;;;;;;;;;;14.80;99.90;;;;;;5093154;28;20410;-72
2022/04/24 07:29:41;;;;;;;;;;;14.80;99.90;;;;;;5092595;28;19999;-72
2022/04/24 07:32:07;;;;;;;;;;;14.80;99.90;;;;;;5074268;28;19924;-71
2022/04/24 07:34:32;;;;;;;;;;;15.10;99.90;;;;;;5092222;28;19908;-72
2022/04/24 07:36:59;;;;;;;;;;;15.50;99.90;;;;;;5092602;28;19916;-72
2022/04/24 07:39:24;;;;;;;;;;;15.80;99.90;;;;;;5092457;28;19919;-72
2022/04/24 07:41:50;;;;;;;;;;;15.60;99.80;;;;;;5073955;28;19916;-73
2022/04/24 07:44:15;;;;;;;;;;;15.70;99.60;;;;;;5092537;28;19912;-73
2022/04/24 07:46:41;;;;;;;;;;;15.80;99.80;;;;;;5092467;28;20367;-72
2022/04/24 07:49:06;;;;;;;;;;;15.90;98.70;;;;;;5074059;28;19916;-73
2022/04/24 07:51:32;;;;;;;;;;;16.10;97.50;;;;;;5092178;28;19923;-73
2022/04/24 07:53:57;;;;;;;;;;;16.10;97.50;;;;;;5073827;28;19916;-73
2022/04/24 07:56:23;;;;;;;;;;;16.00;96.90;;;;;;5092076;28;20015;-72
2022/04/24 07:58:48;;;;;;;;;;;16.10;98.10;;;;;;5073741;28;19959;-71
2022/04/24 08:01:16;;;;;;;;;;;16.40;97.20;;;;;;5091719;28;19961;-71
2022/04/24 08:03:42;;;;;;;;;;;16.90;96.90;;;;;;5072953;28;20382;-71
2022/04/24 08:06:08;;;;;;;;;;;17.30;96.40;;;;;;5091849;28;19908;-71
2022/04/24 08:08:33;;;;;;;;;;;17.60;95.20;;;;;;5073711;28;19908;-71
2022/04/24 08:11:00;;;;;;;;;;;17.60;92.50;;;;;;5073504;28;19938;-71
2022/04/24 08:13:26;;;;;;;;;;;17.20;92.80;;;;;;5092046;28;20014;-72
2022/04/24 08:15:52;;;;;;;;;;;17.10;95.20;;;;;;5073252;28;20337;-71
2022/04/24 08:18:18;;;;;;;;;;;17.00;93.40;;;;;;5092044;28;19961;-71
2022/04/24 08:20:44;;;;;;;;;;;16.70;93.10;;;;;;5091769;28;19908;-72
2022/04/24 08:23:10;;;;;;;;;;;16.50;94.10;;;;;;5091988;28;19916;-72
2022/04/24 08:25:36;;;;;;;;;;;16.80;93.90;;;;;;5073172;28;19939;-72
2022/04/24 08:28:06;;;;;;;;;;;17.20;94.10;;;;;;5091286;28;20269;-73
2022/04/24 08:30:32;;;;;;;;;;;17.70;93.30;;;;;;5091707;28;19923;-74
2022/04/24 08:32:58;;;;;;;;;;;18.00;92.20;;;;;;5091725;28;19916;-74
2022/04/24 08:35:23;;;;;;;;;;;18.30;91.70;;;;;;5073047;28;20314;-73
2022/04/24 08:37:49;;;;;;;;;;;18.30;90.40;;;;;;5091533;28;19916;-73
2022/04/24 08:40:15;;;;;;;;;;;18.20;90.80;;;;;;5072993;28;19912;-72
2022/04/24 08:42:41;;;;;;;;;;;18.40;89.40;;;;;;5091365;28;19923;-72
2022/04/24 08:45:09;;;;;;;;;;;18.60;86.30;;;;;;5072866;28;19912;-72
2022/04/24 08:47:35;;;;;;;;;;;18.60;83.20;;;;;;5091174;28;19920;-72
2022/04/24 08:50:01;;;;;;;;;;;18.30;83.80;;;;;;5091111;28;19914;-72
2022/04/24 08:52:27;;;;;;;;;;;18.50;86.00;;;;;;5091187;28;19920;-71
2022/04/24 08:54:53;;;;;;;;;;;18.60;83.90;;;;;;5091011;28;20312;-71
2022/04/24 08:57:19;;;;;;;;;;;18.70;83.20;;;;;;5091195;28;19924;-72
2022/04/24 08:59:45;;;;;;;;;;;19.00;85.50;;;;;;5090841;28;20225;-71
2022/04/24 09:02:11;;;;;;;;;;;19.40;81.60;;;;;;5091023;28;19916;-71
2022/04/24 09:04:37;;;;;;;;;;;19.80;83.00;;;;;;5090813;28;19939;-71
2022/04/24 09:07:04;;;;;;;;;;;19.80;78.70;;;;;;5072714;28;19923;-71
2022/04/24 09:09:31;;;;;;;;;;;19.70;78.60;;;;;;5090944;28;19915;-71
2022/04/24 09:12:09;;;;;;;;;;;19.60;80.10;;;;;;5072003;28;19928;-71
2022/04/24 09:14:35;;;;;;;;;;;19.50;78.50;;;;;;5093505;28;19908;-71
2022/04/24 09:17:04;;;;;;;;;;;19.80;76.30;;;;;;5095114;28;19923;-71
2022/04/24 09:19:30;;;;;;;;;;;20.00;75.70;;;;;;5094923;28;19990;-71
2022/04/24 09:22:04;;;;;;;;;;;19.70;77.30;;;;;;5094745;28;19924;-72
2022/04/24 09:24:49;;;;;;;;;;;19.70;76.50;;;;;;5076647;28;20006;-72
2022/04/24 09:27:25;;;;;;;;;;;19.80;76.90;;;;;;5076517;28;19916;-72
2022/04/24 09:29:58;;;;;;;;;;;19.80;74.00;;;;;;5095137;28;19908;-72
2022/04/24 09:32:24;;;;;;;;;;;19.80;74.10;;;;;;5095213;28;20322;-72
2022/04/24 09:34:50;;;;;;;;;;;19.50;74.40;;;;;;5094841;28;19916;-71
2022/04/24 09:37:16;;;;;;;;;;;19.30;75.80;;;;;;5095188;28;20441;-72
2022/04/24 09:39:42;;;;;;;;;;;19.40;75.40;;;;;;5076476;28;19959;-71
2022/04/24 09:42:08;;;;;;;;;;;19.30;75.70;;;;;;5095039;28;20347;-72
2022/04/24 09:44:38;;;;;;;;;;;19.10;76.50;;;;;;5076392;28;19909;-73
2022/04/24 09:47:04;;;;;;;;;;;18.90;76.10;;;;;;5076364;28;20364;-73
2022/04/24 09:49:40;;;;;;;;;;;18.80;77.10;;;;;;5094697;28;19951;-73
2022/04/24 09:52:15;;;;;;;;;;;18.70;76.80;;;;;;5076228;28;19920;-72
2022/04/24 09:54:45;;;;;;;;;;;18.40;77.80;;;;;;5094569;28;19908;-71
2022/04/24 09:57:11;;;;;;;;;;;18.20;78.20;;;;;;5094563;28;19915;-71
2022/04/24 09:59:38;;;;;;;;;;;18.20;78.60;;;;;;5094266;28;19998;-71
2022/04/24 10:02:04;;;;;;;;;;;18.80;79.00;;;;;;5094550;28;20275;-71
2022/04/24 10:04:31;;;;;;;;;;;19.40;77.40;;;;;;5094086;28;19908;-72
2022/04/24 10:06:57;;;;;;;;;;;19.60;76.20;;;;;;5094442;28;19943;-72
2022/04/24 10:09:24;;;;;;;;;;;19.60;76.30;;;;;;5094365;28;20314;-71
2022/04/24 10:11:50;;;;;;;;;;;19.50;75.90;;;;;;5075635;28;19924;-71
2022/04/24 10:14:17;;;;;;;;;;;19.50;76.30;;;;;;5094068;28;20284;-72
2022/04/24 10:16:51;;;;;;;;;;;19.60;75.90;;;;;;5094207;28;20007;-71
2022/04/24 10:19:18;;;;;;;;;;;19.80;76.20;;;;;;5094360;28;19916;-71
2022/04/24 10:22:02;;;;;;;;;;;19.70;75.50;;;;;;5094061;28;19930;-71
2022/04/24 10:24:37;;;;;;;;;;;19.70;75.90;;;;;;5075396;28;19934;-73
2022/04/24 10:27:03;;;;;;;;;;;19.90;75.30;;;;;;5093579;28;19965;-72
2022/04/24 10:29:29;;;;;;;;;;;20.10;76.30;;;;;;5075561;28;20216;-71
2022/04/24 10:31:54;;;;;;;;;;;20.50;76.30;;;;;;5093830;28;19989;-72
2022/04/24 10:34:20;;;;;;;;;;;20.40;74.30;;;;;;5075686;28;19912;-72
2022/04/24 10:36:56;;;;;;;;;;;20.40;75.60;;;;;;5093879;28;20015;-71
2022/04/24 10:39:23;;;;;;;;;;;20.70;74.00;;;;;;5093330;28;19957;-72
2022/04/24 10:41:59;;;;;;;;;;;20.50;74.20;;;;;;5075166;28;19920;-74
2022/04/24 10:44:26;;;;;;;;;;;20.30;74.40;;;;;;5093374;28;19908;-72
2022/04/24 10:46:54;;;;;;;;;;;20.20;74.20;;;;;;5093503;28;19969;-71
2022/04/24 10:49:19;;;;;;;;;;;20.20;74.70;;;;;;5093172;28;19912;-72
2022/04/24 10:51:57;;;;;;;;;;;20.40;75.20;;;;;;5093367;28;19923;-72
2022/04/24 10:54:29;;;;;;;;;;;20.70;74.80;;;;;;5093306;28;19915;-71
2022/04/24 10:56:55;;;;;;;;;;;21.00;73.60;;;;;;5093545;28;20011;-71
2022/04/24 10:59:21;;;;;;;;;;;20.80;73.20;;;;;;5092920;28;19978;-71
2022/04/24 11:01:49;;;;;;;;;;;21.00;72.90;;;;;;5092934;28;19923;-72
2022/04/24 11:04:15;;;;;;;;;;;20.80;73.20;;;;;;5093079;28;19915;-73
2022/04/24 11:06:56;;;;;;;;;;;20.70;73.70;;;;;;5074547;28;19920;-71
2022/04/24 11:09:22;;;;;;;;;;;20.30;74.60;;;;;;5092978;28;19908;-71
2022/04/24 11:11:55;;;;;;;;;;;20.10;74.90;;;;;;5093197;28;20030;-71
2022/04/24 11:14:22;;;;;;;;;;;20.10;75.20;;;;;;5092785;28;19913;-71
2022/04/24 11:16:52;;;;;;;;;;;20.20;75.20;;;;;;5092829;28;20005;-72
2022/04/24 11:19:27;;;;;;;;;;;20.70;74.90;;;;;;5092738;28;19912;-71
2022/04/24 11:22:00;;;;;;;;;;;20.60;73.60;;;;;;5092774;28;19988;-72
2022/04/24 11:24:26;;;;;;;;;;;20.80;74.80;;;;;;5074794;28;19930;-71
2022/04/24 11:26:52;;;;;;;;;;;21.10;74.20;;;;;;5092813;28;19923;-72
2022/04/24 11:29:21;;;;;;;;;;;21.30;73.00;;;;;;5074464;28;20368;-72
2022/04/24 11:31:47;;;;;;;;;;;21.10;73.20;;;;;;5092525;28;19959;-72
2022/04/24 11:34:15;;;;;;;;;;;21.30;73.40;;;;;;5092613;28;19917;-73
2022/04/24 11:36:41;;;;;;;;;;;21.50;71.90;;;;;;5092627;28;19924;-73
2022/04/24 11:39:09;;;;;;;;;;;21.60;71.90;;;;;;5092231;28;19969;-73
2022/04/24 11:41:35;;;;;;;;;;;21.00;72.10;;;;;;5092732;28;19967;-73
2022/04/24 11:52:19;;;;;;;;;;;21.40;73.50;;;;;;5092829;28;20256;-73
2022/04/24 11:54:45;;;;;;;;;;;21.20;72.50;;;;;;5092153;28;19908;-73
2022/04/24 11:57:10;;;;;;;;;;;20.70;73.00;;;;;;5092411;28;19923;-72
2022/04/24 11:59:37;;;;;;;;;;;20.80;75.00;;;;;;5073822;28;20008;-73
2022/04/24 12:02:02;;;;;;;;;;;20.60;73.00;;;;;;5073632;28;19927;-74
2022/04/24 12:04:31;;;;;;;;;;;20.40;74.20;;;;;;5092273;28;19913;-73
2022/04/24 12:07:01;;;;;;;;;;;20.20;75.20;;;;;;5073497;28;20105;-74
2022/04/24 12:09:26;;;;;;;;;;;20.00;74.60;;;;;;5073309;28;20341;-74
2022/04/24 12:12:01;;;;;;;;;;;19.40;75.80;;;;;;5091548;28;19977;-74
2022/04/24 12:14:27;;;;;;;;;;;19.40;77.00;;;;;;5092069;28;20295;-74
2022/04/24 12:16:56;;;;;;;;;;;19.10;77.60;;;;;;5093552;28;19920;-74
2022/04/24 12:19:22;;;;;;;;;;;19.00;77.10;;;;;;5091614;28;20383;-74
2022/04/24 12:21:48;;;;;;;;;;;18.90;77.60;;;;;;5092023;28;19958;-74
2022/04/24 12:24:14;;;;;;;;;;;19.20;77.20;;;;;;5073578;28;19912;-74
2022/04/24 12:26:52;;;;;;;;;;;19.10;78.10;;;;;;5091508;28;19916;-74
2022/04/24 12:29:18;;;;;;;;;;;19.30;79.80;;;;;;5091569;28;19912;-74
2022/04/24 12:31:47;;;;;;;;;;;19.60;76.20;;;;;;5091428;28;19926;-74
2022/04/24 12:34:13;;;;;;;;;;;19.70;75.50;;;;;;5091372;28;19996;-74
2022/04/24 12:36:49;;;;;;;;;;;19.60;74.50;;;;;;5072978;28;19916;-76
2022/04/24 12:39:14;;;;;;;;;;;19.40;74.60;;;;;;5091500;28;20365;-75
2022/04/24 12:41:40;;;;;;;;;;;19.00;76.00;;;;;;5091405;28;20033;-75
2022/04/24 12:44:06;;;;;;;;;;;18.70;76.80;;;;;;5091329;28;20332;-74
2022/04/24 12:46:32;;;;;;;;;;;18.50;76.90;;;;;;5091466;28;19916;-73
2022/04/24 12:48:58;;;;;;;;;;;18.40;77.50;;;;;;5090780;28;19915;-75
2022/04/24 12:51:24;;;;;;;;;;;18.30;78.70;;;;;;5091150;28;19916;-73
2022/04/24 12:53:53;;;;;;;;;;;18.40;77.70;;;;;;5091161;28;19935;-74
2022/04/24 12:56:19;;;;;;;;;;;18.50;77.80;;;;;;5090843;28;20364;-74
2022/04/24 12:58:44;;;;;;;;;;;18.70;77.40;;;;;;5072925;28;19915;-74
2022/04/24 13:01:13;;;;;;;;;;;18.80;78.70;;;;;;5072647;28;19991;-74
2022/04/24 13:03:39;;;;;;;;;;;18.90;79.00;;;;;;5091031;28;20264;-73
2022/04/24 13:06:08;;;;;;;;;;;19.10;77.10;;;;;;5090980;28;19908;-73
2022/04/24 13:08:34;;;;;;;;;;;19.00;76.80;;;;;;5072872;28;19931;-73
2022/04/24 13:11:00;;;;;;;;;;;19.00;77.80;;;;;;5090643;28;19920;-73
2022/04/24 13:13:28;;;;;;;;;;;18.90;77.80;;;;;;5091135;28;20405;-74
2022/04/24 13:18:37;;;;;;;;;;;18.40;77.80;;;;;;5091050;28;19930;-73
2022/04/24 13:21:03;;;;;;;;;;;18.30;78.20;;;;;;5090652;28;19912;-74
2022/04/24 13:23:28;;;;;;;;;;;18.10;78.20;;;;;;5091050;28;19923;-74
2022/04/24 13:25:54;;;;;;;;;;;18.00;78.70;;;;;;5090745;28;19908;-73
2022/04/24 13:28:20;;;;;;;;;;;17.90;79.00;;;;;;5072987;28;20331;-74
2022/04/24 13:30:47;;;;;;;;;;;18.10;78.90;;;;;;5090889;28;19908;-74
2022/04/24 13:33:14;;;;;;;;;;;18.30;80.30;;;;;;5091547;28;20356;-73
2022/04/24 13:35:39;;;;;;;;;;;18.40;80.40;;;;;;5090715;28;19912;-73
2022/04/24 13:38:20;;;;;;;;;;;18.40;80.00;;;;;;5091549;28;19962;-75
2022/04/24 13:40:51;;;;;;;;;;;18.40;80.10;;;;;;5090936;28;19912;-74
2022/04/24 13:43:18;;;;;;;;;;;18.20;79.90;;;;;;5090881;28;19919;-75
2022/04/24 13:45:44;;;;;;;;;;;18.10;80.40;;;;;;5072722;28;19950;-74
2022/04/24 13:48:11;;;;;;;;;;;18.10;80.60;;;;;;5091280;28;19959;-74
2022/04/24 13:50:37;;;;;;;;;;;18.10;80.40;;;;;;5072783;28;19987;-74
2022/04/24 13:53:04;;;;;;;;;;;18.10;79.40;;;;;;5091329;28;19916;-74
2022/04/24 13:55:29;;;;;;;;;;;18.10;80.70;;;;;;5090979;28;19912;-75
2022/04/24 13:57:55;;;;;;;;;;;18.10;79.40;;;;;;5072718;28;20253;-74
2022/04/24 14:00:22;;;;;;;;;;;18.10;79.10;;;;;;5091001;28;19916;-74
2022/04/24 14:02:49;;;;;;;;;;;18.00;78.80;;;;;;5076357;28;19920;-74
2022/04/24 14:05:14;;;;;;;;;;;17.90;79.90;;;;;;5076067;28;19908;-74
2022/04/24 14:07:40;;;;;;;;;;;18.00;79.60;;;;;;5094538;28;19927;-74
2022/04/24 14:10:07;;;;;;;;;;;17.90;78.50;;;;;;5076115;28;20013;-74
2022/04/24 14:12:32;;;;;;;;;;;17.80;78.80;;;;;;5093799;28;20292;-74
2022/04/24 14:14:58;;;;;;;;;;;17.80;79.70;;;;;;5094079;28;19908;-74
2022/04/24 14:17:23;;;;;;;;;;;17.70;79.90;;;;;;5075669;28;19916;-74
2022/04/24 14:19:49;;;;;;;;;;;17.70;79.70;;;;;;5093602;28;19972;-75
2022/04/24 14:22:14;;;;;;;;;;;17.70;79.40;;;;;;5075666;28;19916;-74
2022/04/24 14:24:40;;;;;;;;;;;17.80;79.60;;;;;;5093884;28;19912;-74